Time;durP1;ratioP1;P1;durP2;ratioP2;P2;SDS_P1;SDS_P2;PMS_P1;PMS_P2;Temp;Humidity;BMP_temperature;BMP_pressure;BME280_temperature;BME280_humidity;BME280_pressure;Samples;Min_cycle;Max_cycle;Signal;HPM_P1;HPM_P2
2021/12/29 00:02:08;;;;;;;;;;;;;;;16.98;42.19;99788.31;4935249;29;19922;-74
2021/12/29 00:04:34;;;;;;;;;;;;;;;16.98;42.27;99788.31;4935489;29;19954;-76
2021/12/29 00:06:59;;;;;;;;;;;;;;;16.96;42.34;99778.84;4935352;29;19965;-73
2021/12/29 00:09:25;;;;;;;;;;;;;;;16.92;42.16;99757.50;4935301;29;19969;-75
2021/12/29 00:11:51;;;;;;;;;;;;;;;16.89;42.35;99761.03;4935593;29;19915;-74
2021/12/29 00:14:17;;;;;;;;;;;;;;;16.83;42.36;99770.81;4934298;29;19926;-74
2021/12/29 00:16:42;;;;;;;;;;;;;;;16.82;42.14;99782.25;4918187;29;19925;-74
2021/12/29 00:19:08;;;;;;;;;;;;;;;16.82;42.07;99791.31;4934776;29;19915;-74
2021/12/29 00:21:34;;;;;;;;;;;;;;;16.80;42.38;99784.59;4935352;29;19922;-75
2021/12/29 00:24:00;;;;;;;;;;;;;;;16.83;42.43;99775.53;4934826;29;19937;-74
2021/12/29 00:26:27;;;;;;;;;;;;;;;16.87;42.27;99771.66;4935125;29;19915;-75
2021/12/29 00:28:53;;;;;;;;;;;;;;;16.92;42.11;99746.47;4933368;29;19915;-75
2021/12/29 00:31:19;;;;;;;;;;;;;;;16.94;42.10;99748.88;4935119;29;20345;-77
2021/12/29 00:33:44;;;;;;;;;;;;;;;16.90;42.31;99737.00;4935040;29;19922;-83
2021/12/29 00:36:10;;;;;;;;;;;;;;;16.76;42.10;99747.88;4934926;29;19915;-74
2021/12/29 00:38:36;;;;;;;;;;;;;;;16.83;41.79;99743.22;4935024;29;19922;-75
2021/12/29 00:41:01;;;;;;;;;;;;;;;16.87;42.25;99741.31;4943851;29;20017;-75
2021/12/29 00:43:27;;;;;;;;;;;;;;;16.94;42.21;99743.34;4941382;29;20010;-74
2021/12/29 00:45:52;;;;;;;;;;;;;;;16.92;42.40;99740.94;4945203;29;20446;-75
2021/12/29 00:48:19;;;;;;;;;;;;;;;17.00;41.94;99743.78;4945290;29;19919;-75
2021/12/29 00:50:45;;;;;;;;;;;;;;;17.07;42.30;99730.03;4944047;29;20255;-75
2021/12/29 00:53:10;;;;;;;;;;;;;;;17.08;42.12;99732.44;4945268;29;19937;-74
2021/12/29 00:55:36;;;;;;;;;;;;;;;17.03;42.30;99723.72;4944934;29;19915;-78
2021/12/29 00:58:02;;;;;;;;;;;;;;;17.19;42.07;99718.72;4943657;29;20032;-79
2021/12/29 01:00:28;;;;;;;;;;;;;;;17.14;42.16;99722.63;4941461;29;20308;-75
2021/12/29 01:02:53;;;;;;;;;;;;;;;17.25;42.06;99717.19;4944614;29;19919;-74
2021/12/29 01:05:19;;;;;;;;;;;;;;;17.31;42.04;99717.66;4945141;29;20019;-83
2021/12/29 01:07:45;;;;;;;;;;;;;;;17.27;41.97;99714.06;4944008;29;19915;-74
2021/12/29 01:10:12;;;;;;;;;;;;;;;17.38;42.06;99709.38;4949132;29;20426;-74
2021/12/29 01:12:39;;;;;;;;;;;;;;;17.41;41.87;99701.16;4948709;29;19918;-76
2021/12/29 01:15:07;;;;;;;;;;;;;;;17.41;42.05;99698.38;4947308;29;19915;-75
2021/12/29 01:17:32;;;;;;;;;;;;;;;17.48;42.01;99681.88;4948526;29;20289;-75
2021/12/29 01:19:58;;;;;;;;;;;;;;;17.47;41.79;99671.22;4946185;29;19923;-82
2021/12/29 01:22:24;;;;;;;;;;;;;;;17.46;41.92;99673.19;4938699;29;20056;-76
2021/12/29 01:24:49;;;;;;;;;;;;;;;17.50;41.96;99667.66;4940585;29;19925;-82
2021/12/29 01:27:15;;;;;;;;;;;;;;;17.51;42.00;99666.47;4947347;29;19994;-84
2021/12/29 01:29:41;;;;;;;;;;;;;;;17.55;41.83;99661.78;4946452;29;20009;-83
2021/12/29 01:32:06;;;;;;;;;;;;;;;17.51;42.03;99666.47;4939205;29;20014;-79
2021/12/29 01:34:32;;;;;;;;;;;;;;;17.56;42.08;99668.88;4938826;29;20277;-74
2021/12/29 01:36:58;;;;;;;;;;;;;;;17.59;41.81;99676.41;4938560;29;20352;-75
2021/12/29 01:39:24;;;;;;;;;;;;;;;17.70;41.92;99677.28;4938409;29;19918;-74
2021/12/29 01:41:50;;;;;;;;;;;;;;;17.68;41.95;99668.56;4938445;29;20432;-75
2021/12/29 01:44:16;;;;;;;;;;;;;;;17.74;42.07;99647.69;4938392;29;19970;-75
2021/12/29 01:46:43;;;;;;;;;;;;;;;17.75;42.01;99638.22;4938330;29;19929;-80
2021/12/29 01:49:09;;;;;;;;;;;;;;;17.70;42.26;99644.13;4938131;29;19926;-79
2021/12/29 01:51:35;;;;;;;;;;;;;;;17.80;42.22;99636.28;4938267;29;19915;-83
2021/12/29 01:54:23;;;;;;;;;;;;;;;17.89;42.09;99645.78;4938161;29;19915;-74
2021/12/29 01:56:49;;;;;;;;;;;;;;;17.93;42.18;99629.25;4944828;29;19918;-79
2021/12/29 01:59:15;;;;;;;;;;;;;;;17.94;42.23;99631.59;4954891;29;19960;-83
2021/12/29 02:01:41;;;;;;;;;;;;;;;18.02;42.10;99624.13;4957609;29;19922;-75
2021/12/29 02:04:06;;;;;;;;;;;;;;;18.09;42.08;99626.91;4957724;29;19914;-74
2021/12/29 02:06:32;;;;;;;;;;;;;;;17.90;42.59;99616.97;4957552;29;20333;-75
2021/12/29 02:08:58;;;;;;;;;;;;;;;17.94;42.74;99617.00;4957550;29;19926;-75
2021/12/29 02:11:29;;;;;;;;;;;;;;;17.82;43.05;99612.59;4957408;29;20340;-83
2021/12/29 02:13:59;;;;;;;;;;;;;;;17.95;42.78;99604.75;4957166;29;19926;-75
2021/12/29 02:16:24;;;;;;;;;;;;;;;17.93;42.99;99615.41;4957285;29;19918;-74
2021/12/29 02:18:51;;;;;;;;;;;;;;;18.00;42.91;99616.22;4956916;28;19982;-74
2021/12/29 02:21:20;;;;;;;;;;;;;;;17.95;43.24;99608.31;4948563;29;19914;-75
2021/12/29 02:24:03;;;;;;;;;;;;;;;18.09;42.89;99599.28;4920669;29;20009;-75
2021/12/29 02:26:29;;;;;;;;;;;;;;;18.16;43.12;99602.06;4919382;29;20289;-74
2021/12/29 02:28:56;;;;;;;;;;;;;;;18.21;42.82;99590.63;4918962;29;19915;-75
2021/12/29 02:31:22;;;;;;;;;;;;;;;18.45;42.50;99593.81;4918986;29;19927;-82
2021/12/29 02:33:48;;;;;;;;;;;;;;;18.50;42.48;99576.81;4919151;29;19937;-75
2021/12/29 02:36:16;;;;;;;;;;;;;;;18.56;42.31;99580.78;4918870;29;20359;-75
2021/12/29 02:38:46;;;;;;;;;;;;;;;18.53;42.51;99564.97;4919145;29;19915;-76
2021/12/29 02:41:12;;;;;;;;;;;;;;;18.48;43.04;99566.16;4918818;29;20396;-74
2021/12/29 02:43:39;;;;;;;;;;;;;;;18.60;42.42;99558.66;4918960;29;19915;-75
2021/12/29 02:46:11;;;;;;;;;;;;;;;18.64;42.50;99553.91;5178527;23;19940;-76
2021/12/29 02:48:38;;;;;;;;;;;;;;;18.67;42.51;99551.19;4897535;29;19927;-75
2021/12/29 02:51:07;;;;;;;;;;;;;;;18.71;42.54;99540.09;4918641;29;19915;-76
2021/12/29 02:53:32;;;;;;;;;;;;;;;18.70;42.43;99530.22;4917444;29;19918;-76
2021/12/29 02:55:58;;;;;;;;;;;;;;;18.74;42.36;99531.81;4918275;29;19915;-76
2021/12/29 02:58:24;;;;;;;;;;;;;;;18.70;42.74;99522.69;4918556;29;20395;-76
2021/12/29 03:00:50;;;;;;;;;;;;;;;18.66;42.98;99519.13;4901479;29;20325;-76
2021/12/29 03:03:19;;;;;;;;;;;;;;;18.75;42.49;99505.72;4918494;29;19915;-76
2021/12/29 03:05:45;;;;;;;;;;;;;;;18.79;42.62;99509.25;4918448;29;19915;-76
2021/12/29 03:08:14;;;;;;;;;;;;;;;18.77;42.73;99491.47;4918383;29;19922;-76
2021/12/29 03:10:40;;;;;;;;;;;;;;;18.82;42.58;99493.84;4918348;29;19918;-76
2021/12/29 03:13:06;;;;;;;;;;;;;;;18.77;42.88;99492.25;4918315;29;19922;-75
2021/12/29 03:15:32;;;;;;;;;;;;;;;18.82;42.77;99497.41;4918265;29;19915;-77
2021/12/29 03:17:57;;;;;;;;;;;;;;;18.53;43.65;99493.84;4901270;29;19922;-76
2021/12/29 03:20:22;;;;;;;;;;;;;;;18.80;42.91;99488.69;4918124;29;20440;-76
2021/12/29 03:22:48;;;;;;;;;;;;;;;18.81;42.90;99468.13;4918075;29;19915;-76
2021/12/29 03:25:13;;;;;;;;;;;;;;;18.75;43.15;99466.97;4918077;29;19915;-76
2021/12/29 03:27:39;;;;;;;;;;;;;;;18.76;43.06;99451.94;4918084;29;19950;-76
2021/12/29 03:30:04;;;;;;;;;;;;;;;18.83;43.02;99454.69;4918036;29;19915;-76
2021/12/29 03:32:41;;;;;;;;;;;;;;;18.76;43.16;99443.66;4917662;29;20005;-76
2021/12/29 03:35:07;;;;;;;;;;;;;;;18.81;42.86;99437.69;4917942;29;19919;-76
2021/12/29 03:37:32;;;;;;;;;;;;;;;18.73;43.28;99427.81;4917892;29;20313;-76
2021/12/29 03:39:57;;;;;;;;;;;;;;;18.74;43.19;99420.31;4917751;29;19915;-76
2021/12/29 03:42:23;;;;;;;;;;;;;;;18.80;43.14;99425.03;4917832;29;19915;-76
2021/12/29 03:44:48;;;;;;;;;;;;;;;18.69;43.37;99418.75;4917730;29;19922;-76
2021/12/29 03:47:14;;;;;;;;;;;;;;;18.81;42.95;99414.75;4917513;29;19919;-76
2021/12/29 03:49:39;;;;;;;;;;;;;;;18.69;43.43;99412.44;4917651;29;20014;-76
2021/12/29 03:52:05;;;;;;;;;;;;;;;18.82;43.13;99400.53;4916389;29;19962;-77
2021/12/29 03:54:31;;;;;;;;;;;;;;;18.81;43.17;99403.69;4917504;29;19988;-76
2021/12/29 03:57:00;;;;;;;;;;;;;;;18.72;43.49;99392.25;4917509;29;20013;-76
2021/12/29 03:59:26;;;;;;;;;;;;;;;18.85;43.06;99383.13;4917374;29;19923;-76
2021/12/29 04:01:52;;;;;;;;;;;;;;;18.58;43.99;99368.16;4917434;29;20016;-76
2021/12/29 04:04:18;;;;;;;;;;;;;;;18.47;44.23;99364.66;4900437;29;19919;-76
2021/12/29 04:06:44;;;;;;;;;;;;;;;18.50;44.10;99350.00;4917059;29;19931;-76
2021/12/29 04:09:09;;;;;;;;;;;;;;;18.69;43.97;99352.34;4917284;29;19919;-76
2021/12/29 04:11:35;;;;;;;;;;;;;;;18.62;44.20;99343.25;4917294;29;19922;-77
2021/12/29 04:14:00;;;;;;;;;;;;;;;18.62;44.12;99335.75;4915959;29;19922;-76
2021/12/29 04:16:25;;;;;;;;;;;;;;;18.60;44.28;99326.28;4917196;29;19918;-76
2021/12/29 04:19:13;;;;;;;;;;;;;;;18.64;44.14;99316.78;4917207;29;19915;-76
2021/12/29 04:21:40;;;;;;;;;;;;;;;18.73;43.87;99306.06;4917075;29;20410;-77
2021/12/29 04:24:06;;;;;;;;;;;;;;;18.70;44.25;99301.38;4917075;29;19915;-76
2021/12/29 04:26:33;;;;;;;;;;;;;;;18.73;44.02;99297.78;4917082;29;19935;-76
2021/12/29 04:28:58;;;;;;;;;;;;;;;18.83;43.81;99293.41;4917079;29;19922;-76
2021/12/29 04:31:24;;;;;;;;;;;;;;;18.83;43.85;99279.56;4916946;29;19915;-76
2021/12/29 04:33:49;;;;;;;;;;;;;;;18.74;44.08;99273.66;4916865;29;20309;-77
2021/12/29 04:36:15;;;;;;;;;;;;;;;18.54;44.82;99265.84;4917151;29;19915;-77
2021/12/29 04:38:41;;;;;;;;;;;;;;;18.85;43.95;99255.03;4916832;29;20378;-76
2021/12/29 04:41:06;;;;;;;;;;;;;;;18.77;44.36;99228.59;4917038;29;19963;-77
2021/12/29 04:43:32;;;;;;;;;;;;;;;18.65;44.59;99224.28;4916149;29;20014;-76
2021/12/29 04:45:57;;;;;;;;;;;;;;;18.63;44.71;99221.13;4916895;29;19918;-76
2021/12/29 04:48:24;;;;;;;;;;;;;;;18.43;45.36;99206.22;4912398;29;19926;-76
2021/12/29 04:50:52;;;;;;;;;;;;;;;18.57;44.93;99219.97;4897900;29;19932;-77
2021/12/29 04:53:18;;;;;;;;;;;;;;;18.65;44.73;99207.69;4897865;29;19922;-76
2021/12/29 04:55:45;;;;;;;;;;;;;;;18.42;45.41;99199.13;4897937;29;19922;-76
2021/12/29 04:58:11;;;;;;;;;;;;;;;18.70;44.62;99187.94;4897623;29;19998;-76
2021/12/29 05:00:37;;;;;;;;;;;;;;;18.74;44.46;99172.09;4896321;29;19915;-76
2021/12/29 05:03:03;;;;;;;;;;;;;;;18.69;44.94;99175.28;4896588;29;19971;-76
2021/12/29 05:10:41;;;;;;;;;;;;;;;18.63;45.08;99167.78;4898123;29;19923;-76
2021/12/29 05:13:06;;;;;;;;;;;;;;;18.54;45.49;99148.88;4897729;29;20386;-76
2021/12/29 05:15:32;;;;;;;;;;;;;;;18.54;45.43;99146.91;4897734;29;20337;-77
2021/12/29 05:17:58;;;;;;;;;;;;;;;18.23;46.28;99137.63;4897676;29;19918;-76
2021/12/29 05:20:25;;;;;;;;;;;;;;;18.53;45.85;99125.19;4897610;29;20010;-76
2021/12/29 05:22:50;;;;;;;;;;;;;;;18.60;45.61;99114.09;4897654;29;20412;-76
2021/12/29 05:25:16;;;;;;;;;;;;;;;18.56;45.95;99077.34;4897603;29;19923;-77
2021/12/29 05:27:41;;;;;;;;;;;;;;;18.72;45.64;99076.84;4897690;29;19915;-76
2021/12/29 05:30:07;;;;;;;;;;;;;;;18.57;46.08;99062.31;4897607;29;19916;-77
2021/12/29 05:32:33;;;;;;;;;;;;;;;18.52;46.31;99082.13;4897865;29;19922;-76
2021/12/29 05:34:59;;;;;;;;;;;;;;;18.47;46.58;99080.56;4897584;29;20338;-76
2021/12/29 05:37:24;;;;;;;;;;;;;;;18.67;45.97;99058.72;4897553;29;19964;-76
2021/12/29 05:39:49;;;;;;;;;;;;;;;18.60;46.18;99039.41;4897406;29;20370;-76
2021/12/29 05:42:15;;;;;;;;;;;;;;;18.80;45.71;99032.13;4897505;29;19919;-76
2021/12/29 05:44:40;;;;;;;;;;;;;;;18.54;46.54;99016.91;4897454;29;19922;-76
2021/12/29 05:47:06;;;;;;;;;;;;;;;18.25;47.52;99021.09;4897269;29;19919;-76
2021/12/29 05:49:32;;;;;;;;;;;;;;;18.23;47.74;99020.72;4897414;29;19923;-76
2021/12/29 05:51:57;;;;;;;;;;;;;;;18.56;46.68;99008.19;4897054;29;19915;-76
2021/12/29 05:54:23;;;;;;;;;;;;;;;18.74;46.50;98995.03;4898640;29;20419;-77
2021/12/29 05:56:48;;;;;;;;;;;;;;;18.60;46.88;98984.06;4900819;29;20298;-76
2021/12/29 05:59:14;;;;;;;;;;;;;;;18.48;47.30;98967.97;4900753;29;19964;-76
2021/12/29 06:01:40;;;;;;;;;;;;;;;18.43;47.69;98963.66;4915126;29;20393;-76
2021/12/29 06:04:05;;;;;;;;;;;;;;;18.58;47.42;98965.09;4900694;29;19915;-77
2021/12/29 06:06:35;;;;;;;;;;;;;;;18.66;47.01;98932.66;4900620;29;20378;-76
2021/12/29 06:09:00;;;;;;;;;;;;;;;18.95;46.32;98932.34;4900607;29;20351;-76
2021/12/29 06:11:26;;;;;;;;;;;;;;;18.78;47.14;98925.81;4900523;29;19974;-76
2021/12/29 06:13:51;;;;;;;;;;;;;;;18.69;47.32;98895.09;4900523;29;19915;-76
2021/12/29 06:16:16;;;;;;;;;;;;;;;18.40;48.46;98898.13;4900495;29;19923;-76
2021/12/29 06:18:42;;;;;;;;;;;;;;;18.40;48.52;98886.28;4900427;29;19915;-76
2021/12/29 06:21:07;;;;;;;;;;;;;;;18.61;47.95;98885.28;4900300;29;19915;-77
2021/12/29 06:23:33;;;;;;;;;;;;;;;18.88;47.38;98894.47;4900316;29;19921;-76
2021/12/29 06:25:58;;;;;;;;;;;;;;;18.65;48.27;98875.72;4900320;29;19988;-76
2021/12/29 06:28:24;;;;;;;;;;;;;;;18.77;48.05;98877.22;4900256;29;19922;-76
2021/12/29 06:33:52;;;;;;;;;;;;;;;18.99;47.61;98861.94;4900251;29;19985;-76
2021/12/29 06:36:17;;;;;;;;;;;;;;;18.99;47.62;98866.69;4900123;29;19919;-76
2021/12/29 06:38:43;;;;;;;;;;;;;;;18.96;47.79;98848.91;4900139;29;20014;-76
2021/12/29 06:41:08;;;;;;;;;;;;;;;19.16;47.28;98846.28;4899937;29;19915;-76
2021/12/29 06:43:33;;;;;;;;;;;;;;;19.24;47.17;98839.44;4914474;29;20003;-76
2021/12/29 06:45:59;;;;;;;;;;;;;;;19.31;47.24;98808.88;4900020;29;19912;-77
2021/12/29 06:48:24;;;;;;;;;;;;;;;19.14;47.55;98812.69;4918910;29;19921;-76
2021/12/29 06:50:50;;;;;;;;;;;;;;;19.15;47.91;98800.44;4918786;29;19986;-76
2021/12/29 06:53:15;;;;;;;;;;;;;;;19.39;47.07;98804.81;4917163;29;19991;-76
2021/12/29 06:55:42;;;;;;;;;;;;;;;19.21;47.68;98781.38;4918643;29;19965;-76
2021/12/29 06:58:08;;;;;;;;;;;;;;;19.42;47.31;98769.94;4917373;29;19952;-76
2021/12/29 07:00:34;;;;;;;;;;;;;;;19.13;48.38;98756.56;4917240;29;19915;-76
2021/12/29 07:03:01;;;;;;;;;;;;;;;19.41;47.46;98733.16;4918547;29;19942;-76
2021/12/29 07:05:26;;;;;;;;;;;;;;;19.24;48.34;98722.38;4917891;29;19972;-77
2021/12/29 07:07:54;;;;;;;;;;;;;;;19.19;48.16;98714.53;4918322;29;19919;-76
2021/12/29 07:10:19;;;;;;;;;;;;;;;19.66;47.51;98720.91;4916981;29;19915;-76
2021/12/29 07:12:45;;;;;;;;;;;;;;;19.44;48.06;98711.38;4916937;29;19923;-76
2021/12/29 07:15:10;;;;;;;;;;;;;;;19.52;47.99;98704.50;4917007;29;19922;-77
2021/12/29 07:17:35;;;;;;;;;;;;;;;19.53;47.93;98697.75;4918262;29;20290;-76
2021/12/29 07:20:01;;;;;;;;;;;;;;;19.44;48.41;98686.47;4916888;29;19969;-76
2021/12/29 07:22:27;;;;;;;;;;;;;;;19.49;48.46;98695.03;4916902;29;20001;-76
2021/12/29 07:24:52;;;;;;;;;;;;;;;19.58;48.14;98680.69;4918165;29;19915;-76
2021/12/29 07:27:17;;;;;;;;;;;;;;;19.61;48.37;98677.06;4918078;29;19915;-76
2021/12/29 07:29:43;;;;;;;;;;;;;;;19.64;48.15;98663.13;4918046;29;19915;-76
2021/12/29 07:32:09;;;;;;;;;;;;;;;19.58;48.52;98653.78;4917992;29;20417;-76
2021/12/29 07:34:35;;;;;;;;;;;;;;;19.77;48.09;98649.44;4917918;29;20467;-77
2021/12/29 07:37:00;;;;;;;;;;;;;;;19.90;47.75;98647.63;4917969;29;19919;-76
2021/12/29 07:39:26;;;;;;;;;;;;;;;19.88;47.88;98660.34;4917811;29;19919;-76
2021/12/29 07:41:51;;;;;;;;;;;;;;;19.85;48.12;98656.41;4916490;29;19915;-77
2021/12/29 07:44:18;;;;;;;;;;;;;;;20.09;47.27;98648.03;4917766;29;19998;-76
2021/12/29 07:46:45;;;;;;;;;;;;;;;20.05;47.51;98641.78;4917532;29;19997;-76
2021/12/29 07:49:11;;;;;;;;;;;;;;;20.05;47.53;98641.78;4917714;29;19915;-76
2021/12/29 07:51:37;;;;;;;;;;;;;;;20.15;47.16;98649.09;4917648;29;20014;-76
2021/12/29 07:54:03;;;;;;;;;;;;;;;20.22;47.03;98637.84;4917572;29;20433;-76
2021/12/29 07:56:28;;;;;;;;;;;;;;;20.20;46.98;98635.50;4917614;29;19922;-76
2021/12/29 07:58:54;;;;;;;;;;;;;;;20.14;47.27;98625.34;4917535;29;19965;-77
2021/12/29 08:01:19;;;;;;;;;;;;;;;20.26;46.89;98632.25;4917238;29;20417;-77
2021/12/29 08:03:45;;;;;;;;;;;;;;;20.14;47.21;98628.13;4917444;29;19962;-76
2021/12/29 08:06:10;;;;;;;;;;;;;;;20.24;46.97;98591.84;4917403;29;19911;-77
2021/12/29 08:08:35;;;;;;;;;;;;;;;20.11;47.27;98584.63;4917290;29;19944;-76
2021/12/29 08:11:01;;;;;;;;;;;;;;;20.02;47.79;98578.88;4916090;29;20294;-76
2021/12/29 08:13:26;;;;;;;;;;;;;;;20.15;47.60;98571.47;4917255;29;19989;-77
2021/12/29 08:15:52;;;;;;;;;;;;;;;20.17;47.50;98550.41;4917247;29;20341;-76
2021/12/29 08:18:17;;;;;;;;;;;;;;;20.10;48.07;98527.59;4917144;29;19911;-77
2021/12/29 08:20:43;;;;;;;;;;;;;;;20.06;48.76;98541.56;4917329;29;19937;-76
2021/12/29 08:23:10;;;;;;;;;;;;;;;20.06;49.25;98541.56;4916686;29;19938;-77
2021/12/29 08:25:36;;;;;;;;;;;;;;;20.43;48.64;98547.84;4916360;29;19915;-77
2021/12/29 08:28:01;;;;;;;;;;;;;;;20.42;49.14;98541.53;4916076;29;19922;-78
2021/12/29 08:30:27;;;;;;;;;;;;;;;20.49;49.73;98538.63;4916222;29;19915;-77
2021/12/29 08:32:53;;;;;;;;;;;;;;;20.55;50.19;98538.09;4916577;29;19938;-76
2021/12/29 08:35:18;;;;;;;;;;;;;;;20.89;49.37;98541.19;4916591;29;19915;-77
2021/12/29 08:37:43;;;;;;;;;;;;;;;20.95;49.18;98547.78;4906678;29;19915;-78
2021/12/29 08:40:09;;;;;;;;;;;;;;;20.89;49.51;98540.41;4915345;29;19985;-78
2021/12/29 08:42:35;;;;;;;;;;;;;;;20.87;49.70;98535.31;4916807;29;20452;-78
2021/12/29 08:45:01;;;;;;;;;;;;;;;20.98;49.34;98544.13;4915664;29;20576;-79
2021/12/29 08:47:26;;;;;;;;;;;;;;;20.77;50.06;98566.88;4916552;29;19919;-79
2021/12/29 08:49:52;;;;;;;;;;;;;;;20.70;50.30;98567.81;4916728;29;19915;-78
2021/12/29 08:52:17;;;;;;;;;;;;;;;20.94;49.56;98573.22;4916758;29;19917;-76
2021/12/29 08:54:43;;;;;;;;;;;;;;;21.02;49.38;98583.69;4916621;29;20014;-77
2021/12/29 08:57:11;;;;;;;;;;;;;;;20.90;49.76;98598.28;4911430;29;19966;-79
2021/12/29 08:59:37;;;;;;;;;;;;;;;20.88;49.90;98606.25;4904405;29;19915;-77
2021/12/29 09:02:02;;;;;;;;;;;;;;;20.41;51.04;98609.31;4906598;29;19919;-76
2021/12/29 09:04:28;;;;;;;;;;;;;;;20.71;50.37;98643.56;4906282;29;19990;-77
2021/12/29 09:06:53;;;;;;;;;;;;;;;20.53;50.40;98632.06;4906264;29;19967;-77
2021/12/29 09:09:25;;;;;;;;;;;;;;;20.78;49.86;98643.34;4906080;29;19922;-78
2021/12/29 09:11:50;;;;;;;;;;;;;;;20.72;49.77;98656.22;4907703;29;19916;-77
2021/12/29 09:14:16;;;;;;;;;;;;;;;20.13;51.40;98693.09;4906263;29;19926;-79
2021/12/29 09:16:44;;;;;;;;;;;;;;;20.19;50.57;98691.41;4907717;29;20329;-77
2021/12/29 09:19:12;;;;;;;;;;;;;;;19.71;51.09;98706.56;4906451;29;19922;-77
2021/12/29 09:21:39;;;;;;;;;;;;;;;20.16;49.54;98697.78;4906033;29;20001;-77
2021/12/29 09:24:05;;;;;;;;;;;;;;;19.92;49.74;98733.09;4907679;29;19931;-81
2021/12/29 09:26:32;;;;;;;;;;;;;;;20.17;48.26;98760.34;4905069;29;19915;-77
2021/12/29 09:28:57;;;;;;;;;;;;;;;20.30;47.47;98760.50;4909580;29;19971;-78
2021/12/29 09:31:24;;;;;;;;;;;;;;;20.41;46.88;98764.66;4909303;29;19922;-78
2021/12/29 09:33:51;;;;;;;;;;;;;;;19.41;48.55;98755.31;4910782;29;19915;-76
2021/12/29 09:36:16;;;;;;;;;;;;;;;19.81;47.31;98752.72;4909511;29;19927;-76
2021/12/29 09:38:42;;;;;;;;;;;;;;;19.55;47.97;98765.38;4908917;29;20286;-76
2021/12/29 09:41:09;;;;;;;;;;;;;;;20.09;46.46;98770.00;4910745;29;19973;-76
2021/12/29 09:43:35;;;;;;;;;;;;;;;20.12;46.11;98799.69;4907958;29;19950;-80
2021/12/29 09:46:01;;;;;;;;;;;;;;;19.89;46.22;98806.81;4909812;29;19915;-77
2021/12/29 09:48:26;;;;;;;;;;;;;;;20.20;45.38;98818.53;4891997;29;19915;-77
2021/12/29 09:50:52;;;;;;;;;;;;;;;19.95;45.78;98838.38;4908377;29;19926;-77
2021/12/29 09:53:18;;;;;;;;;;;;;;;20.00;45.77;98855.72;4909997;29;19915;-78
2021/12/29 09:55:45;;;;;;;;;;;;;;;20.39;44.74;98855.81;4908492;29;19916;-78
2021/12/29 09:58:11;;;;;;;;;;;;;;;20.46;44.53;98872.34;4908765;29;19915;-76
2021/12/29 10:00:48;;;;;;;;;;;;;;;20.00;45.21;98870.34;4909601;29;20134;-77
2021/12/29 10:03:14;;;;;;;;;;;;;;;19.82;45.62;98864.34;4909729;29;19946;-77
2021/12/29 10:05:41;;;;;;;;;;;;;;;20.23;44.65;98853.72;4911108;29;19916;-77
2021/12/29 10:08:08;;;;;;;;;;;;;;;19.99;45.00;98884.66;4909224;29;19921;-77
2021/12/29 10:10:35;;;;;;;;;;;;;;;20.10;44.78;98866.66;4909727;29;20005;-77
2021/12/29 10:13:03;;;;;;;;;;;;;;;20.33;44.33;98887.22;4906436;29;19927;-78
2021/12/29 10:15:40;;;;;;;;;;;;;;;20.36;44.26;98903.03;4910574;29;20361;-76
2021/12/29 10:18:07;;;;;;;;;;;;;;;20.50;43.76;98934.09;4914962;29;19926;-77
2021/12/29 10:20:34;;;;;;;;;;;;;;;20.30;43.72;98944.31;4904689;29;19991;-76
2021/12/29 10:22:59;;;;;;;;;;;;;;;20.28;43.73;98965.38;4915771;29;19915;-76
2021/12/29 10:25:25;;;;;;;;;;;;;;;20.04;44.02;98954.25;4905418;29;19920;-79
2021/12/29 10:27:52;;;;;;;;;;;;;;;19.99;43.90;98984.44;4910051;29;19922;-77
2021/12/29 10:30:21;;;;;;;;;;;;;;;20.26;43.18;98981.66;4908934;29;20002;-77
2021/12/29 10:32:47;;;;;;;;;;;;;;;20.23;43.08;98986.81;4908604;29;19915;-80
2021/12/29 10:35:23;;;;;;;;;;;;;;;20.22;42.93;99001.13;4909935;29;19919;-79
2021/12/29 10:37:49;;;;;;;;;;;;;;;20.41;42.37;99002.41;4908005;29;19923;-78
2021/12/29 10:40:23;;;;;;;;;;;;;;;20.14;42.90;99019.84;4908849;29;19915;-77
2021/12/29 10:42:53;;;;;;;;;;;;;;;19.94;43.58;99022.50;4910267;29;19969;-76
2021/12/29 10:45:27;;;;;;;;;;;;;;;19.97;43.53;99022.88;4908124;29;20401;-78
2021/12/29 10:47:52;;;;;;;;;;;;;;;20.34;42.81;99035.81;4909498;29;19926;-76
2021/12/29 10:50:18;;;;;;;;;;;;;;;20.00;43.36;99033.91;4908251;29;19915;-80
2021/12/29 10:52:48;;;;;;;;;;;;;;;19.60;44.33;99030.88;4908435;29;19915;-76
2021/12/29 10:55:21;;;;;;;;;;;;;;;19.55;44.14;99024.97;4910173;29;19914;-75
2021/12/29 10:57:58;;;;;;;;;;;;;;;19.70;43.89;99039.47;4909506;29;20010;-76
2021/12/29 11:00:24;;;;;;;;;;;;;;;20.11;42.99;99042.09;4910488;29;20370;-77
2021/12/29 11:02:49;;;;;;;;;;;;;;;20.17;42.63;99043.16;4902613;29;19954;-76
2021/12/29 11:05:14;;;;;;;;;;;;;;;20.08;42.67;99068.66;4899650;29;19915;-76
2021/12/29 11:07:40;;;;;;;;;;;;;;;19.72;43.28;99059.22;4899603;29;19923;-76
2021/12/29 11:10:07;;;;;;;;;;;;;;;20.10;42.54;99079.31;4899618;29;19967;-75
2021/12/29 11:12:42;;;;;;;;;;;;;;;19.94;42.91;99083.47;4899492;29;19952;-76
2021/12/29 11:15:21;;;;;;;;;;;;;;;19.77;43.19;99097.56;4899451;29;19915;-76
2021/12/29 11:17:48;;;;;;;;;;;;;;;19.63;43.55;99104.84;4898559;29;19931;-76
2021/12/29 11:20:18;;;;;;;;;;;;;;;19.72;43.38;99107.13;4897448;29;19979;-76
2021/12/29 11:22:44;;;;;;;;;;;;;;;20.06;42.74;99132.06;4897571;29;19922;-76
2021/12/29 11:25:09;;;;;;;;;;;;;;;19.75;43.17;99138.78;4898108;29;19915;-76
2021/12/29 11:27:35;;;;;;;;;;;;;;;19.95;43.01;99134.19;4881198;29;19922;-76
2021/12/29 11:30:08;;;;;;;;;;;;;;;19.76;43.22;99121.72;4898358;29;19916;-76
2021/12/29 11:32:35;;;;;;;;;;;;;;;19.91;43.20;99125.91;4898094;29;19923;-76
2021/12/29 11:35:09;;;;;;;;;;;;;;;19.70;43.32;99142.78;4899044;29;19921;-76
2021/12/29 11:37:55;;;;;;;;;;;;;;;19.61;43.51;99146.03;4898995;29;19915;-76
2021/12/29 11:40:22;;;;;;;;;;;;;;;20.28;42.28;99142.88;4898836;29;20361;-76
2021/12/29 11:42:48;;;;;;;;;;;;;;;19.93;42.98;99170.63;4898872;29;19961;-76
2021/12/29 11:45:14;;;;;;;;;;;;;;;19.37;43.98;99161.69;4898886;29;19915;-76
2021/12/29 11:47:40;;;;;;;;;;;;;;;19.33;43.86;99168.44;4898647;29;19951;-75
2021/12/29 11:50:08;;;;;;;;;;;;;;;19.80;43.09;99182.66;4898749;29;20374;-75
2021/12/29 11:52:53;;;;;;;;;;;;;;;20.24;42.31;99226.88;4898549;29;20366;-75
2021/12/29 11:55:19;;;;;;;;;;;;;;;20.30;42.29;99246.63;4898718;29;19923;-75
2021/12/29 11:57:45;;;;;;;;;;;;;;;20.23;42.39;99224.53;4898660;29;20294;-75
2021/12/29 12:00:17;;;;;;;;;;;;;;;20.34;42.34;99247.38;4898567;29;19922;-75
2021/12/29 12:02:44;;;;;;;;;;;;;;;20.12;42.84;99241.31;4898616;29;19915;-75
2021/12/29 12:05:15;;;;;;;;;;;;;;;20.35;42.43;99246.19;4898522;29;19950;-75
2021/12/29 12:07:40;;;;;;;;;;;;;;;20.18;42.48;99255.50;4905606;29;20330;-76
2021/12/29 12:10:11;;;;;;;;;;;;;;;19.99;43.04;99267.97;4906551;29;20017;-75
2021/12/29 12:12:39;;;;;;;;;;;;;;;19.06;45.11;99268.75;4909158;29;20269;-75
2021/12/29 12:15:07;;;;;;;;;;;;;;;20.04;42.99;99281.41;4906594;29;19915;-76
2021/12/29 12:17:33;;;;;;;;;;;;;;;20.41;42.04;99288.91;4909115;29;19922;-76
2021/12/29 12:20:07;;;;;;;;;;;;;;;20.17;42.72;99296.28;4906490;29;19915;-76
2021/12/29 12:22:41;;;;;;;;;;;;;;;20.07;43.09;99313.84;4906838;29;20322;-75
2021/12/29 12:25:06;;;;;;;;;;;;;;;20.24;42.57;99298.22;4903122;29;19915;-75
2021/12/29 12:27:40;;;;;;;;;;;;;;;20.78;41.59;99309.47;4906636;29;19971;-75
2021/12/29 12:30:25;;;;;;;;;;;;;;;20.31;42.60;99300.13;4889976;29;19973;-75
2021/12/29 12:32:52;;;;;;;;;;;;;;;20.52;42.02;99308.22;4908386;29;20033;-76
2021/12/29 12:35:29;;;;;;;;;;;;;;;20.36;42.44;99325.44;4906843;29;19998;-74
2021/12/29 12:37:54;;;;;;;;;;;;;;;20.27;42.88;99343.75;4908715;29;19915;-75
2021/12/29 12:40:41;;;;;;;;;;;;;;;20.45;42.35;99353.47;4908678;29;20426;-76
2021/12/29 12:43:13;;;;;;;;;;;;;;;20.34;42.57;99360.34;4907374;29;20047;-75
2021/12/29 12:45:46;;;;;;;;;;;;;;;20.27;42.91;99355.66;4904452;29;19919;-75
2021/12/29 12:48:12;;;;;;;;;;;;;;;20.80;42.00;99351.50;4906655;29;19947;-75
2021/12/29 12:50:40;;;;;;;;;;;;;;;20.65;42.43;99350.91;4904476;29;19935;-77
2021/12/29 12:53:06;;;;;;;;;;;;;;;20.84;41.74;99348.66;4903364;29;19920;-76
2021/12/29 12:55:45;;;;;;;;;;;;;;;20.56;42.21;99347.03;4897547;29;19923;-78